sensor_id;sensor_type;location;lat;lon;timestamp;P1;durP1;ratioP1;P2;durP2;ratioP2
69795;SDS011;57073;45.650;9.612;2022-07-29T00:01:45;1.23;;;0.90;;
69795;SDS011;57073;45.650;9.612;2022-07-29T00:03:45;1.58;;;0.90;;
69795;SDS011;57073;45.650;9.612;2022-07-29T00:05:46;2.92;;;1.10;;
69795;SDS011;57073;45.650;9.612;2022-07-29T00:07:47;1.70;;;1.03;;
69795;SDS011;57073;45.650;9.612;2022-07-29T00:09:47;2.57;;;0.90;;
69795;SDS011;57073;45.650;9.612;2022-07-29T00:11:47;3.03;;;0.97;;
69795;SDS011;57073;45.650;9.612;2022-07-29T00:13:48;1.88;;;1.10;;
69795;SDS011;57073;45.650;9.612;2022-07-29T00:15:48;1.87;;;0.90;;
69795;SDS011;57073;45.650;9.612;2022-07-29T00:17:49;1.20;;;0.90;;
69795;SDS011;57073;45.650;9.612;2022-07-29T00:19:49;1.55;;;1.00;;
69795;SDS011;57073;45.650;9.612;2022-07-29T00:21:50;2.90;;;1.10;;
69795;SDS011;57073;45.650;9.612;2022-07-29T00:23:50;1.50;;;1.10;;
69795;SDS011;57073;45.650;9.612;2022-07-29T00:25:51;2.10;;;1.10;;
69795;SDS011;57073;45.650;9.612;2022-07-29T00:27:51;2.50;;;1.30;;
69795;SDS011;57073;45.650;9.612;2022-07-29T00:29:51;2.17;;;1.20;;
69795;SDS011;57073;45.650;9.612;2022-07-29T00:31:52;2.50;;;1.17;;
69795;SDS011;57073;45.650;9.612;2022-07-29T00:33:52;1.83;;;1.30;;
69795;SDS011;57073;45.650;9.612;2022-07-29T00:35:54;2.80;;;1.10;;
69795;SDS011;57073;45.650;9.612;2022-07-29T00:37:55;3.55;;;1.00;;
69795;SDS011;57073;45.650;9.612;2022-07-29T00:39:55;2.73;;;1.10;;
69795;SDS011;57073;45.650;9.612;2022-07-29T00:41:55;3.00;;;1.00;;
69795;SDS011;57073;45.650;9.612;2022-07-29T00:43:56;1.73;;;0.97;;
69795;SDS011;57073;45.650;9.612;2022-07-29T00:45:59;3.45;;;1.20;;
69795;SDS011;57073;45.650;9.612;2022-07-29T00:47:59;1.20;;;0.90;;
69795;SDS011;57073;45.650;9.612;2022-07-29T00:50:00;2.50;;;1.20;;
69795;SDS011;57073;45.650;9.612;2022-07-29T00:52:01;1.80;;;0.97;;
69795;SDS011;57073;45.650;9.612;2022-07-29T00:54:03;2.05;;;1.25;;
69795;SDS011;57073;45.650;9.612;2022-07-29T00:56:04;3.30;;;1.00;;
69795;SDS011;57073;45.650;9.612;2022-07-29T00:58:05;1.97;;;1.00;;
69795;SDS011;57073;45.650;9.612;2022-07-29T01:00:07;2.28;;;1.10;;
69795;SDS011;57073;45.650;9.612;2022-07-29T01:02:09;1.73;;;1.20;;
69795;SDS011;57073;45.650;9.612;2022-07-29T01:04:10;2.57;;;1.13;;
69795;SDS011;57073;45.650;9.612;2022-07-29T01:06:10;2.83;;;1.00;;
69795;SDS011;57073;45.650;9.612;2022-07-29T01:08:11;1.70;;;0.95;;
69795;SDS011;57073;45.650;9.612;2022-07-29T01:10:14;2.25;;;1.10;;
69795;SDS011;57073;45.650;9.612;2022-07-29T01:12:22;2.03;;;1.10;;
69795;SDS011;57073;45.650;9.612;2022-07-29T01:14:26;1.50;;;1.02;;
69795;SDS011;57073;45.650;9.612;2022-07-29T01:16:32;1.70;;;1.00;;
69795;SDS011;57073;45.650;9.612;2022-07-29T01:18:39;1.55;;;0.80;;
69795;SDS011;57073;45.650;9.612;2022-07-29T01:23:40;1.80;;;1.00;;
69795;SDS011;57073;45.650;9.612;2022-07-29T01:25:48;1.40;;;1.00;;
69795;SDS011;57073;45.650;9.612;2022-07-29T01:30:26;1.35;;;1.00;;
69795;SDS011;57073;45.650;9.612;2022-07-29T01:32:29;1.52;;;1.00;;
69795;SDS011;57073;45.650;9.612;2022-07-29T01:39:12;1.45;;;1.08;;
69795;SDS011;57073;45.650;9.612;2022-07-29T01:41:18;1.67;;;1.02;;
69795;SDS011;57073;45.650;9.612;2022-07-29T01:43:21;2.40;;;1.10;;
69795;SDS011;57073;45.650;9.612;2022-07-29T01:46:01;2.03;;;1.00;;
69795;SDS011;57073;45.650;9.612;2022-07-29T01:48:02;1.40;;;1.00;;
69795;SDS011;57073;45.650;9.612;2022-07-29T01:50:07;1.40;;;1.00;;
69795;SDS011;57073;45.650;9.612;2022-07-29T01:52:11;2.17;;;0.80;;
69795;SDS011;57073;45.650;9.612;2022-07-29T01:54:29;2.00;;;1.13;;
69795;SDS011;57073;45.650;9.612;2022-07-29T01:56:34;1.40;;;0.90;;
69795;SDS011;57073;45.650;9.612;2022-07-29T01:58:38;3.15;;;1.35;;
69795;SDS011;57073;45.650;9.612;2022-07-29T02:00:42;1.05;;;0.88;;
69795;SDS011;57073;45.650;9.612;2022-07-29T02:02:45;1.83;;;1.30;;
69795;SDS011;57073;45.650;9.612;2022-07-29T02:04:47;1.17;;;0.98;;
69795;SDS011;57073;45.650;9.612;2022-07-29T02:06:51;1.30;;;0.90;;
69795;SDS011;57073;45.650;9.612;2022-07-29T02:08:54;1.65;;;1.10;;
69795;SDS011;57073;45.650;9.612;2022-07-29T02:10:57;1.45;;;1.20;;
69795;SDS011;57073;45.650;9.612;2022-07-29T02:12:59;2.17;;;1.00;;
69795;SDS011;57073;45.650;9.612;2022-07-29T02:15:03;1.52;;;1.20;;
69795;SDS011;57073;45.650;9.612;2022-07-29T02:17:05;2.37;;;0.93;;
69795;SDS011;57073;45.650;9.612;2022-07-29T02:19:07;1.35;;;1.08;;
69795;SDS011;57073;45.650;9.612;2022-07-29T02:21:10;1.95;;;1.30;;
69795;SDS011;57073;45.650;9.612;2022-07-29T02:23:12;3.65;;;1.10;;
69795;SDS011;57073;45.650;9.612;2022-07-29T02:25:17;2.00;;;1.00;;
69795;SDS011;57073;45.650;9.612;2022-07-29T02:27:18;1.67;;;1.00;;
69795;SDS011;57073;45.650;9.612;2022-07-29T02:29:23;1.65;;;1.00;;
69795;SDS011;57073;45.650;9.612;2022-07-29T02:31:26;2.40;;;1.10;;
69795;SDS011;57073;45.650;9.612;2022-07-29T02:33:32;1.48;;;1.08;;
69795;SDS011;57073;45.650;9.612;2022-07-29T02:35:36;1.70;;;1.10;;
69795;SDS011;57073;45.650;9.612;2022-07-29T02:37:37;2.80;;;1.10;;
69795;SDS011;57073;45.650;9.612;2022-07-29T02:39:40;3.95;;;1.00;;
69795;SDS011;57073;45.650;9.612;2022-07-29T02:42:01;1.88;;;1.10;;
69795;SDS011;57073;45.650;9.612;2022-07-29T02:44:06;2.00;;;1.00;;
69795;SDS011;57073;45.650;9.612;2022-07-29T02:46:11;2.25;;;1.13;;
69795;SDS011;57073;45.650;9.612;2022-07-29T02:48:15;1.60;;;0.97;;
69795;SDS011;57073;45.650;9.612;2022-07-29T02:50:33;1.85;;;1.10;;
69795;SDS011;57073;45.650;9.612;2022-07-29T02:52:38;2.13;;;1.00;;
69795;SDS011;57073;45.650;9.612;2022-07-29T02:57:02;2.13;;;1.00;;
69795;SDS011;57073;45.650;9.612;2022-07-29T02:59:09;3.40;;;1.00;;
69795;SDS011;57073;45.650;9.612;2022-07-29T03:01:22;1.83;;;1.20;;
69795;SDS011;57073;45.650;9.612;2022-07-29T03:03:27;1.58;;;1.02;;
69795;SDS011;57073;45.650;9.612;2022-07-29T03:05:31;3.53;;;1.20;;
69795;SDS011;57073;45.650;9.612;2022-07-29T03:07:33;1.60;;;1.20;;
69795;SDS011;57073;45.650;9.612;2022-07-29T03:09:35;2.45;;;1.10;;
69795;SDS011;57073;45.650;9.612;2022-07-29T03:11:36;1.40;;;1.00;;
69795;SDS011;57073;45.650;9.612;2022-07-29T03:13:38;2.90;;;0.95;;
69795;SDS011;57073;45.650;9.612;2022-07-29T03:15:39;1.50;;;1.30;;
69795;SDS011;57073;45.650;9.612;2022-07-29T03:17:42;1.60;;;1.20;;
69795;SDS011;57073;45.650;9.612;2022-07-29T03:19:43;1.63;;;1.02;;
69795;SDS011;57073;45.650;9.612;2022-07-29T03:21:44;1.80;;;1.10;;
69795;SDS011;57073;45.650;9.612;2022-07-29T03:23:44;1.80;;;1.10;;
69795;SDS011;57073;45.650;9.612;2022-07-29T03:25:45;1.13;;;1.02;;
69795;SDS011;57073;45.650;9.612;2022-07-29T03:27:46;2.40;;;1.30;;
69795;SDS011;57073;45.650;9.612;2022-07-29T03:29:47;1.80;;;1.30;;
69795;SDS011;57073;45.650;9.612;2022-07-29T03:31:48;1.40;;;1.10;;
69795;SDS011;57073;45.650;9.612;2022-07-29T03:33:50;2.55;;;1.20;;
69795;SDS011;57073;45.650;9.612;2022-07-29T03:35:50;4.37;;;1.30;;
69795;SDS011;57073;45.650;9.612;2022-07-29T03:37:50;2.72;;;1.30;;
69795;SDS011;57073;45.650;9.612;2022-07-29T03:39:51;2.30;;;1.07;;
69795;SDS011;57073;45.650;9.612;2022-07-29T03:41:55;2.40;;;1.02;;
69795;SDS011;57073;45.650;9.612;2022-07-29T03:43:57;1.93;;;1.20;;
69795;SDS011;57073;45.650;9.612;2022-07-29T03:45:59;1.50;;;1.15;;
69795;SDS011;57073;45.650;9.612;2022-07-29T03:48:01;2.38;;;1.38;;
69795;SDS011;57073;45.650;9.612;2022-07-29T03:50:05;1.23;;;1.08;;
69795;SDS011;57073;45.650;9.612;2022-07-29T03:52:07;1.70;;;1.15;;
69795;SDS011;57073;45.650;9.612;2022-07-29T03:54:08;2.70;;;1.50;;
69795;SDS011;57073;45.650;9.612;2022-07-29T03:56:11;1.35;;;1.00;;
69795;SDS011;57073;45.650;9.612;2022-07-29T03:58:16;2.03;;;1.20;;
69795;SDS011;57073;45.650;9.612;2022-07-29T04:00:19;1.35;;;1.10;;
69795;SDS011;57073;45.650;9.612;2022-07-29T04:02:19;2.63;;;1.30;;
69795;SDS011;57073;45.650;9.612;2022-07-29T04:04:21;1.27;;;1.10;;
69795;SDS011;57073;45.650;9.612;2022-07-29T04:06:22;1.67;;;1.23;;
69795;SDS011;57073;45.650;9.612;2022-07-29T04:08:23;1.93;;;1.10;;
69795;SDS011;57073;45.650;9.612;2022-07-29T04:10:23;2.47;;;1.25;;
69795;SDS011;57073;45.650;9.612;2022-07-29T04:12:24;3.13;;;1.30;;
69795;SDS011;57073;45.650;9.612;2022-07-29T04:14:24;1.63;;;1.30;;
69795;SDS011;57073;45.650;9.612;2022-07-29T04:16:24;2.93;;;1.40;;
69795;SDS011;57073;45.650;9.612;2022-07-29T04:18:25;2.83;;;1.20;;
69795;SDS011;57073;45.650;9.612;2022-07-29T04:20:26;2.30;;;1.70;;
69795;SDS011;57073;45.650;9.612;2022-07-29T04:22:27;1.63;;;1.38;;
69795;SDS011;57073;45.650;9.612;2022-07-29T04:24:27;2.30;;;1.30;;
69795;SDS011;57073;45.650;9.612;2022-07-29T04:26:28;2.20;;;1.30;;
69795;SDS011;57073;45.650;9.612;2022-07-29T04:28:28;2.33;;;1.40;;
69795;SDS011;57073;45.650;9.612;2022-07-29T04:30:29;3.60;;;1.60;;
69795;SDS011;57073;45.650;9.612;2022-07-29T04:32:30;1.60;;;1.30;;
69795;SDS011;57073;45.650;9.612;2022-07-29T04:34:31;2.63;;;1.60;;
69795;SDS011;57073;45.650;9.612;2022-07-29T04:36:31;2.27;;;1.33;;
69795;SDS011;57073;45.650;9.612;2022-07-29T04:38:31;1.70;;;1.30;;
69795;SDS011;57073;45.650;9.612;2022-07-29T04:40:32;2.60;;;1.23;;
69795;SDS011;57073;45.650;9.612;2022-07-29T04:42:33;2.22;;;1.50;;
69795;SDS011;57073;45.650;9.612;2022-07-29T04:44:34;4.03;;;1.40;;
69795;SDS011;57073;45.650;9.612;2022-07-29T04:46:34;1.70;;;1.30;;
69795;SDS011;57073;45.650;9.612;2022-07-29T04:48:35;2.72;;;1.40;;
69795;SDS011;57073;45.650;9.612;2022-07-29T04:50:39;4.17;;;1.30;;
69795;SDS011;57073;45.650;9.612;2022-07-29T04:52:40;2.80;;;1.70;;
69795;SDS011;57073;45.650;9.612;2022-07-29T04:54:40;4.50;;;1.80;;
69795;SDS011;57073;45.650;9.612;2022-07-29T04:56:41;2.80;;;1.50;;
69795;SDS011;57073;45.650;9.612;2022-07-29T04:58:41;2.17;;;1.50;;
69795;SDS011;57073;45.650;9.612;2022-07-29T05:00:42;2.90;;;1.50;;
69795;SDS011;57073;45.650;9.612;2022-07-29T05:02:42;3.33;;;1.40;;
69795;SDS011;57073;45.650;9.612;2022-07-29T05:04:42;2.50;;;1.50;;
69795;SDS011;57073;45.650;9.612;2022-07-29T05:06:43;3.03;;;1.50;;
69795;SDS011;57073;45.650;9.612;2022-07-29T05:08:43;2.60;;;1.60;;
69795;SDS011;57073;45.650;9.612;2022-07-29T05:10:45;2.30;;;1.60;;
69795;SDS011;57073;45.650;9.612;2022-07-29T05:12:45;3.47;;;2.03;;
69795;SDS011;57073;45.650;9.612;2022-07-29T05:14:46;3.47;;;1.70;;
69795;SDS011;57073;45.650;9.612;2022-07-29T05:16:46;3.53;;;1.90;;
69795;SDS011;57073;45.650;9.612;2022-07-29T05:18:46;5.10;;;1.80;;
69795;SDS011;57073;45.650;9.612;2022-07-29T05:20:47;4.77;;;2.33;;
69795;SDS011;57073;45.650;9.612;2022-07-29T05:22:47;3.93;;;2.60;;
69795;SDS011;57073;45.650;9.612;2022-07-29T05:24:48;3.50;;;2.03;;
69795;SDS011;57073;45.650;9.612;2022-07-29T05:26:49;4.60;;;2.33;;
69795;SDS011;57073;45.650;9.612;2022-07-29T05:28:49;10.50;;;2.90;;
69795;SDS011;57073;45.650;9.612;2022-07-29T05:30:49;7.25;;;3.13;;
69795;SDS011;57073;45.650;9.612;2022-07-29T05:32:50;7.93;;;3.10;;
69795;SDS011;57073;45.650;9.612;2022-07-29T05:34:50;6.97;;;3.60;;
69795;SDS011;57073;45.650;9.612;2022-07-29T05:36:51;6.87;;;3.17;;
69795;SDS011;57073;45.650;9.612;2022-07-29T05:38:51;8.23;;;2.78;;
69795;SDS011;57073;45.650;9.612;2022-07-29T05:40:52;5.30;;;2.77;;
69795;SDS011;57073;45.650;9.612;2022-07-29T05:42:52;6.97;;;3.43;;
69795;SDS011;57073;45.650;9.612;2022-07-29T05:44:53;7.07;;;2.97;;
69795;SDS011;57073;45.650;9.612;2022-07-29T05:46:53;5.47;;;3.10;;
69795;SDS011;57073;45.650;9.612;2022-07-29T05:48:53;6.50;;;2.90;;
69795;SDS011;57073;45.650;9.612;2022-07-29T05:50:54;5.57;;;2.87;;
69795;SDS011;57073;45.650;9.612;2022-07-29T05:52:54;8.43;;;2.53;;
69795;SDS011;57073;45.650;9.612;2022-07-29T05:54:55;3.83;;;2.20;;
69795;SDS011;57073;45.650;9.612;2022-07-29T05:56:56;4.28;;;2.20;;
69795;SDS011;57073;45.650;9.612;2022-07-29T05:58:56;3.23;;;2.03;;
69795;SDS011;57073;45.650;9.612;2022-07-29T06:00:56;3.13;;;1.93;;
69795;SDS011;57073;45.650;9.612;2022-07-29T06:03:00;4.10;;;1.85;;
69795;SDS011;57073;45.650;9.612;2022-07-29T06:05:01;3.60;;;1.90;;
69795;SDS011;57073;45.650;9.612;2022-07-29T06:07:02;4.13;;;1.97;;
69795;SDS011;57073;45.650;9.612;2022-07-29T06:09:03;3.15;;;1.90;;
69795;SDS011;57073;45.650;9.612;2022-07-29T06:11:03;4.50;;;1.90;;
69795;SDS011;57073;45.650;9.612;2022-07-29T06:13:04;2.95;;;1.75;;
69795;SDS011;57073;45.650;9.612;2022-07-29T06:15:05;5.57;;;2.07;;
69795;SDS011;57073;45.650;9.612;2022-07-29T06:17:06;8.48;;;1.90;;
69795;SDS011;57073;45.650;9.612;2022-07-29T06:19:06;3.37;;;1.83;;
69795;SDS011;57073;45.650;9.612;2022-07-29T06:21:07;3.67;;;2.10;;
69795;SDS011;57073;45.650;9.612;2022-07-29T06:23:09;2.45;;;1.77;;
69795;SDS011;57073;45.650;9.612;2022-07-29T06:25:10;3.67;;;2.33;;
69795;SDS011;57073;45.650;9.612;2022-07-29T06:27:10;4.90;;;2.40;;
69795;SDS011;57073;45.650;9.612;2022-07-29T06:29:11;3.80;;;2.13;;
69795;SDS011;57073;45.650;9.612;2022-07-29T06:31:11;6.47;;;2.20;;
69795;SDS011;57073;45.650;9.612;2022-07-29T06:33:15;3.28;;;2.00;;
69795;SDS011;57073;45.650;9.612;2022-07-29T06:35:17;8.03;;;2.47;;
69795;SDS011;57073;45.650;9.612;2022-07-29T06:37:18;4.38;;;2.05;;
69795;SDS011;57073;45.650;9.612;2022-07-29T06:39:18;2.77;;;2.10;;
69795;SDS011;57073;45.650;9.612;2022-07-29T06:41:18;2.72;;;2.20;;
69795;SDS011;57073;45.650;9.612;2022-07-29T06:43:19;2.83;;;2.10;;
69795;SDS011;57073;45.650;9.612;2022-07-29T06:45:19;5.43;;;2.20;;
69795;SDS011;57073;45.650;9.612;2022-07-29T06:47:20;2.30;;;1.97;;
69795;SDS011;57073;45.650;9.612;2022-07-29T06:49:20;2.40;;;2.20;;
69795;SDS011;57073;45.650;9.612;2022-07-29T06:51:21;3.07;;;1.80;;
69795;SDS011;57073;45.650;9.612;2022-07-29T06:53:22;2.85;;;1.90;;
69795;SDS011;57073;45.650;9.612;2022-07-29T06:55:22;2.83;;;1.90;;
69795;SDS011;57073;45.650;9.612;2022-07-29T06:57:23;2.88;;;2.03;;
69795;SDS011;57073;45.650;9.612;2022-07-29T06:59:23;5.57;;;2.03;;
69795;SDS011;57073;45.650;9.612;2022-07-29T07:01:24;3.23;;;2.00;;
69795;SDS011;57073;45.650;9.612;2022-07-29T07:03:24;2.50;;;1.77;;
69795;SDS011;57073;45.650;9.612;2022-07-29T07:05:25;5.63;;;2.00;;
69795;SDS011;57073;45.650;9.612;2022-07-29T07:07:25;2.63;;;2.10;;
69795;SDS011;57073;45.650;9.612;2022-07-29T07:09:25;3.20;;;1.87;;
69795;SDS011;57073;45.650;9.612;2022-07-29T07:11:26;3.77;;;2.20;;
69795;SDS011;57073;45.650;9.612;2022-07-29T07:13:27;2.40;;;2.20;;
69795;SDS011;57073;45.650;9.612;2022-07-29T07:15:28;3.35;;;1.83;;
69795;SDS011;57073;45.650;9.612;2022-07-29T07:17:29;3.17;;;1.90;;
69795;SDS011;57073;45.650;9.612;2022-07-29T07:19:29;3.43;;;1.90;;
69795;SDS011;57073;45.650;9.612;2022-07-29T07:21:29;3.47;;;1.83;;
69795;SDS011;57073;45.650;9.612;2022-07-29T07:23:30;4.30;;;1.93;;
69795;SDS011;57073;45.650;9.612;2022-07-29T07:25:30;2.97;;;1.80;;
69795;SDS011;57073;45.650;9.612;2022-07-29T07:27:31;2.13;;;1.90;;
69795;SDS011;57073;45.650;9.612;2022-07-29T07:29:31;2.60;;;1.90;;
69795;SDS011;57073;45.650;9.612;2022-07-29T07:31:32;3.08;;;1.88;;
69795;SDS011;57073;45.650;9.612;2022-07-29T07:33:33;1.97;;;1.80;;
69795;SDS011;57073;45.650;9.612;2022-07-29T07:35:33;2.57;;;1.90;;
69795;SDS011;57073;45.650;9.612;2022-07-29T07:37:34;4.40;;;1.92;;
69795;SDS011;57073;45.650;9.612;2022-07-29T07:39:34;2.10;;;1.90;;
69795;SDS011;57073;45.650;9.612;2022-07-29T07:41:35;2.87;;;2.20;;
69795;SDS011;57073;45.650;9.612;2022-07-29T07:43:35;2.28;;;1.98;;
69795;SDS011;57073;45.650;9.612;2022-07-29T07:45:35;2.67;;;1.87;;
69795;SDS011;57073;45.650;9.612;2022-07-29T07:47:37;2.85;;;2.05;;
69795;SDS011;57073;45.650;9.612;2022-07-29T07:49:38;2.10;;;1.90;;
69795;SDS011;57073;45.650;9.612;2022-07-29T07:51:38;3.27;;;2.00;;
69795;SDS011;57073;45.650;9.612;2022-07-29T07:53:38;4.10;;;2.17;;
69795;SDS011;57073;45.650;9.612;2022-07-29T07:55:40;2.20;;;2.00;;
69795;SDS011;57073;45.650;9.612;2022-07-29T07:57:41;2.85;;;2.10;;
69795;SDS011;57073;45.650;9.612;2022-07-29T07:59:42;3.43;;;2.20;;
69795;SDS011;57073;45.650;9.612;2022-07-29T08:01:42;2.93;;;2.10;;
69795;SDS011;57073;45.650;9.612;2022-07-29T08:03:43;2.50;;;2.20;;
69795;SDS011;57073;45.650;9.612;2022-07-29T08:05:43;3.17;;;2.13;;
69795;SDS011;57073;45.650;9.612;2022-07-29T08:07:45;3.92;;;2.42;;
69795;SDS011;57073;45.650;9.612;2022-07-29T08:09:46;5.05;;;2.30;;
69795;SDS011;57073;45.650;9.612;2022-07-29T08:11:47;3.10;;;2.30;;
69795;SDS011;57073;45.650;9.612;2022-07-29T08:13:47;3.30;;;2.33;;
69795;SDS011;57073;45.650;9.612;2022-07-29T08:15:47;3.00;;;2.30;;
69795;SDS011;57073;45.650;9.612;2022-07-29T08:17:57;5.55;;;2.50;;
69795;SDS011;57073;45.650;9.612;2022-07-29T08:19:57;6.60;;;2.70;;
69795;SDS011;57073;45.650;9.612;2022-07-29T08:21:58;4.20;;;2.70;;
69795;SDS011;57073;45.650;9.612;2022-07-29T08:23:58;5.97;;;3.40;;
69795;SDS011;57073;45.650;9.612;2022-07-29T08:26:17;8.00;;;4.05;;
69795;SDS011;57073;45.650;9.612;2022-07-29T08:28:22;7.43;;;3.70;;
69795;SDS011;57073;45.650;9.612;2022-07-29T08:30:23;6.40;;;3.90;;
69795;SDS011;57073;45.650;9.612;2022-07-29T08:32:23;6.27;;;3.87;;
69795;SDS011;57073;45.650;9.612;2022-07-29T08:34:24;9.82;;;4.20;;
69795;SDS011;57073;45.650;9.612;2022-07-29T08:36:24;7.60;;;4.20;;
69795;SDS011;57073;45.650;9.612;2022-07-29T08:38:24;8.43;;;3.93;;
69795;SDS011;57073;45.650;9.612;2022-07-29T08:40:26;7.47;;;4.20;;
69795;SDS011;57073;45.650;9.612;2022-07-29T08:42:26;8.73;;;3.87;;
69795;SDS011;57073;45.650;9.612;2022-07-29T08:44:27;7.55;;;4.45;;
69795;SDS011;57073;45.650;9.612;2022-07-29T08:46:27;7.20;;;4.30;;
69795;SDS011;57073;45.650;9.612;2022-07-29T08:48:27;6.20;;;4.10;;
69795;SDS011;57073;45.650;9.612;2022-07-29T08:50:28;7.80;;;4.17;;
69795;SDS011;57073;45.650;9.612;2022-07-29T08:52:28;7.07;;;4.53;;
69795;SDS011;57073;45.650;9.612;2022-07-29T08:54:32;6.30;;;3.67;;
69795;SDS011;57073;45.650;9.612;2022-07-29T08:56:33;6.00;;;3.28;;
69795;SDS011;57073;45.650;9.612;2022-07-29T08:58:34;4.32;;;3.45;;
69795;SDS011;57073;45.650;9.612;2022-07-29T09:00:36;6.67;;;3.90;;
69795;SDS011;57073;45.650;9.612;2022-07-29T09:02:41;5.03;;;3.47;;
69795;SDS011;57073;45.650;9.612;2022-07-29T09:04:48;5.85;;;4.20;;
69795;SDS011;57073;45.650;9.612;2022-07-29T09:06:49;5.80;;;3.50;;
69795;SDS011;57073;45.650;9.612;2022-07-29T09:08:51;4.03;;;2.73;;
69795;SDS011;57073;45.650;9.612;2022-07-29T09:10:52;5.10;;;2.60;;
69795;SDS011;57073;45.650;9.612;2022-07-29T09:12:56;4.50;;;2.47;;
69795;SDS011;57073;45.650;9.612;2022-07-29T09:14:57;3.35;;;2.20;;
69795;SDS011;57073;45.650;9.612;2022-07-29T09:16:57;3.63;;;2.30;;
69795;SDS011;57073;45.650;9.612;2022-07-29T09:18:57;2.95;;;2.03;;
69795;SDS011;57073;45.650;9.612;2022-07-29T09:20:58;3.57;;;2.70;;
69795;SDS011;57073;45.650;9.612;2022-07-29T09:23:17;4.05;;;2.53;;
69795;SDS011;57073;45.650;9.612;2022-07-29T09:25:36;5.73;;;2.60;;
69795;SDS011;57073;45.650;9.612;2022-07-29T09:27:37;4.03;;;2.40;;
69795;SDS011;57073;45.650;9.612;2022-07-29T09:29:38;4.33;;;2.80;;
69795;SDS011;57073;45.650;9.612;2022-07-29T09:31:39;5.25;;;2.70;;
69795;SDS011;57073;45.650;9.612;2022-07-29T09:33:41;3.72;;;2.67;;
69795;SDS011;57073;45.650;9.612;2022-07-29T09:35:42;5.60;;;2.93;;
69795;SDS011;57073;45.650;9.612;2022-07-29T09:37:43;5.40;;;2.60;;
69795;SDS011;57073;45.650;9.612;2022-07-29T09:39:44;3.60;;;2.50;;
69795;SDS011;57073;45.650;9.612;2022-07-29T09:41:46;5.80;;;3.30;;
69795;SDS011;57073;45.650;9.612;2022-07-29T09:43:56;4.53;;;3.10;;
69795;SDS011;57073;45.650;9.612;2022-07-29T09:46:09;6.45;;;2.90;;
69795;SDS011;57073;45.650;9.612;2022-07-29T09:48:14;4.53;;;3.00;;
69795;SDS011;57073;45.650;9.612;2022-07-29T09:50:16;5.53;;;3.10;;
69795;SDS011;57073;45.650;9.612;2022-07-29T09:52:19;5.50;;;3.45;;
69795;SDS011;57073;45.650;9.612;2022-07-29T09:54:26;5.25;;;3.35;;
69795;SDS011;57073;45.650;9.612;2022-07-29T09:56:40;5.97;;;3.40;;
69795;SDS011;57073;45.650;9.612;2022-07-29T09:58:42;6.57;;;3.27;;
69795;SDS011;57073;45.650;9.612;2022-07-29T10:00:42;5.88;;;3.08;;
69795;SDS011;57073;45.650;9.612;2022-07-29T10:02:46;3.37;;;2.90;;
69795;SDS011;57073;45.650;9.612;2022-07-29T10:04:47;6.25;;;3.40;;
69795;SDS011;57073;45.650;9.612;2022-07-29T10:07:00;4.77;;;3.07;;
69795;SDS011;57073;45.650;9.612;2022-07-29T10:09:09;4.13;;;3.43;;
69795;SDS011;57073;45.650;9.612;2022-07-29T10:11:14;5.75;;;4.05;;
69795;SDS011;57073;45.650;9.612;2022-07-29T10:13:16;6.47;;;4.10;;
69795;SDS011;57073;45.650;9.612;2022-07-29T10:15:16;4.00;;;3.40;;
69795;SDS011;57073;45.650;9.612;2022-07-29T10:17:18;4.10;;;3.35;;
69795;SDS011;57073;45.650;9.612;2022-07-29T10:19:19;6.88;;;3.80;;
69795;SDS011;57073;45.650;9.612;2022-07-29T10:21:20;6.73;;;4.03;;
69795;SDS011;57073;45.650;9.612;2022-07-29T10:23:21;4.70;;;3.30;;
69795;SDS011;57073;45.650;9.612;2022-07-29T10:25:23;4.28;;;2.90;;
69795;SDS011;57073;45.650;9.612;2022-07-29T10:27:24;4.43;;;3.42;;
69795;SDS011;57073;45.650;9.612;2022-07-29T10:29:25;5.17;;;4.10;;
69795;SDS011;57073;45.650;9.612;2022-07-29T10:31:28;5.43;;;4.10;;
69795;SDS011;57073;45.650;9.612;2022-07-29T10:33:51;7.40;;;4.07;;
69795;SDS011;57073;45.650;9.612;2022-07-29T10:36:02;5.97;;;4.03;;
69795;SDS011;57073;45.650;9.612;2022-07-29T10:40:36;4.28;;;3.70;;
69795;SDS011;57073;45.650;9.612;2022-07-29T10:43:14;6.95;;;3.90;;
69795;SDS011;57073;45.650;9.612;2022-07-29T10:45:19;6.00;;;3.65;;
69795;SDS011;57073;45.650;9.612;2022-07-29T10:47:23;5.27;;;3.97;;
69795;SDS011;57073;45.650;9.612;2022-07-29T10:49:25;5.45;;;4.45;;
69795;SDS011;57073;45.650;9.612;2022-07-29T10:51:33;6.78;;;4.20;;
69795;SDS011;57073;45.650;9.612;2022-07-29T10:53:50;7.78;;;4.00;;
69795;SDS011;57073;45.650;9.612;2022-07-29T10:55:52;6.10;;;4.00;;
69795;SDS011;57073;45.650;9.612;2022-07-29T11:09:19;4.40;;;3.90;;
69795;SDS011;57073;45.650;9.612;2022-07-29T11:15:55;6.57;;;4.68;;
69795;SDS011;57073;45.650;9.612;2022-07-29T11:22:36;5.35;;;4.20;;
69795;SDS011;57073;45.650;9.612;2022-07-29T11:24:37;9.25;;;5.45;;
69795;SDS011;57073;45.650;9.612;2022-07-29T11:26:38;6.83;;;4.80;;
69795;SDS011;57073;45.650;9.612;2022-07-29T11:29:23;6.95;;;4.75;;
69795;SDS011;57073;45.650;9.612;2022-07-29T11:30:59;5.77;;;5.00;;
69795;SDS011;57073;45.650;9.612;2022-07-29T11:33:00;9.52;;;5.07;;
69795;SDS011;57073;45.650;9.612;2022-07-29T11:35:11;7.23;;;6.53;;
69795;SDS011;57073;45.650;9.612;2022-07-29T11:37:14;7.30;;;6.60;;
69795;SDS011;57073;45.650;9.612;2022-07-29T11:39:25;6.97;;;5.20;;
69795;SDS011;57073;45.650;9.612;2022-07-29T11:41:26;6.88;;;5.68;;
69795;SDS011;57073;45.650;9.612;2022-07-29T11:45:55;6.73;;;4.73;;
69795;SDS011;57073;45.650;9.612;2022-07-29T11:47:56;7.28;;;5.20;;
69795;SDS011;57073;45.650;9.612;2022-07-29T11:49:59;9.18;;;5.10;;
69795;SDS011;57073;45.650;9.612;2022-07-29T11:52:02;7.13;;;4.93;;
69795;SDS011;57073;45.650;9.612;2022-07-29T11:54:03;7.50;;;5.03;;
69795;SDS011;57073;45.650;9.612;2022-07-29T11:56:04;10.63;;;6.00;;
69795;SDS011;57073;45.650;9.612;2022-07-29T11:58:08;9.17;;;5.50;;
69795;SDS011;57073;45.650;9.612;2022-07-29T12:00:09;12.32;;;5.32;;
69795;SDS011;57073;45.650;9.612;2022-07-29T12:02:10;6.68;;;5.22;;
69795;SDS011;57073;45.650;9.612;2022-07-29T12:04:12;5.97;;;4.78;;
69795;SDS011;57073;45.650;9.612;2022-07-29T12:06:13;5.90;;;5.10;;
69795;SDS011;57073;45.650;9.612;2022-07-29T12:08:15;7.70;;;6.18;;
69795;SDS011;57073;45.650;9.612;2022-07-29T12:10:21;11.32;;;6.32;;
69795;SDS011;57073;45.650;9.612;2022-07-29T12:12:22;8.13;;;6.97;;
69795;SDS011;57073;45.650;9.612;2022-07-29T12:14:29;8.55;;;5.75;;
69795;SDS011;57073;45.650;9.612;2022-07-29T12:16:37;9.27;;;5.03;;
69795;SDS011;57073;45.650;9.612;2022-07-29T12:18:37;6.53;;;5.50;;
69795;SDS011;57073;45.650;9.612;2022-07-29T12:20:38;7.70;;;6.00;;
69795;SDS011;57073;45.650;9.612;2022-07-29T12:22:39;8.13;;;7.23;;
69795;SDS011;57073;45.650;9.612;2022-07-29T12:24:44;12.75;;;7.20;;
69795;SDS011;57073;45.650;9.612;2022-07-29T12:26:58;8.95;;;6.35;;
69795;SDS011;57073;45.650;9.612;2022-07-29T12:28:59;10.20;;;5.70;;
69795;SDS011;57073;45.650;9.612;2022-07-29T12:30:59;8.95;;;5.65;;
69795;SDS011;57073;45.650;9.612;2022-07-29T12:33:00;10.23;;;5.85;;
69795;SDS011;57073;45.650;9.612;2022-07-29T12:35:08;6.60;;;5.97;;
69795;SDS011;57073;45.650;9.612;2022-07-29T12:37:10;8.70;;;5.53;;
69795;SDS011;57073;45.650;9.612;2022-07-29T12:39:11;8.83;;;5.50;;
69795;SDS011;57073;45.650;9.612;2022-07-29T12:41:12;7.03;;;5.50;;
69795;SDS011;57073;45.650;9.612;2022-07-29T12:43:16;7.45;;;6.07;;
69795;SDS011;57073;45.650;9.612;2022-07-29T12:45:27;6.90;;;5.50;;
69795;SDS011;57073;45.650;9.612;2022-07-29T12:47:28;10.40;;;5.78;;
69795;SDS011;57073;45.650;9.612;2022-07-29T12:49:29;10.50;;;6.20;;
69795;SDS011;57073;45.650;9.612;2022-07-29T12:51:37;7.10;;;5.67;;
69795;SDS011;57073;45.650;9.612;2022-07-29T12:53:38;6.95;;;5.10;;
69795;SDS011;57073;45.650;9.612;2022-07-29T12:57:44;6.22;;;5.15;;
69795;SDS011;57073;45.650;9.612;2022-07-29T13:02:22;8.73;;;6.72;;